French Navy Ship — SO — position and weather

sailwx.info

Track history (hours):
 
Tides and Currents Weather Stations Pressure Air Temp Water Temp Dewpoint Dewpoint Depression Visibility Wind Speed Wind Dir Waves Ship Positions

French Navy Ship

Last reported at 2018-Jun-21 12:57 UTC. Time now 2018-Jun-21 17:41 UTC.
Position N 38°54' W 009°36'.

Type: Military. MMSI: 555555555.

Date/timePositionNaut miles runAvg speedWind from/ knotsBaromVisibWave heightAir tempDewpointWater temp
2018-Jun-21 12:57N 38°54' W 009°36'3 7.0
2018-Jun-21 12:30N 38°56' W 009°40'1 1.5
2018-Jun-21 12:00N 38°56' W 009°39'4 8.6
2018-Jun-21 11:31N 38°52' W 009°38'1 1.7
2018-Jun-21 11:00N 38°51' W 009°38'5 9.8
2018-Jun-21 10:30N 38°46' W 009°37'5 9.8
2018-Jun-21 10:00N 38°42' W 009°36'510.2
2018-Jun-21 09:30N 38°37' W 009°34'611.0
2018-Jun-21 09:00N 38°37' W 009°27'611.5
2018-Jun-21 08:30N 38°39' W 009°20'611.1
2018-Jun-21 08:00N 38°41' W 009°13'  
2018-Jun-16 12:00N 38°41' W 009°13'0 0.0
2018-Jun-16 11:30N 38°41' W 009°13'0 0.0
2018-Jun-16 11:00N 38°41' W 009°13'0 0.0
2018-Jun-16 10:30N 38°41' W 009°13'2 3.8
2018-Jun-16 10:00N 38°41' W 009°16'510.2
2018-Jun-16 09:30N 38°38' W 009°21'713.3
2018-Jun-16 09:00N 38°35' W 009°28'611.9
2018-Jun-16 08:30N 38°29' W 009°28'612.1
2018-Jun-16 08:00N 38°28' W 009°36'815.1
2018-Jun-16 07:30N 38°30' W 009°45'715.0
2018-Jun-16 07:00N 38°31' W 009°55'  
Track history (hours):
 
Tides and Currents Weather Stations Pressure Air Temp Water Temp Dewpoint Dewpoint Depression Visibility Wind Speed Wind Dir Waves Ship Positions

French Navy Ship

Last reported at 2018-Jun-21 12:57 UTC. Time now 2018-Jun-21 17:41 UTC.
Position N 38°54' W 009°36'.

Type: Military. MMSI: 555555555.

Date/timePositionNaut miles runAvg speedWind from/ knotsBaromVisibWave heightAir tempDewpointWater temp
2018-Jun-21 12:57N 38°54' W 009°36'3 7.0
2018-Jun-21 12:30N 38°56' W 009°40'1 1.5
2018-Jun-21 12:00N 38°56' W 009°39'4 8.6
2018-Jun-21 11:31N 38°52' W 009°38'1 1.7
2018-Jun-21 11:00N 38°51' W 009°38'5 9.8
2018-Jun-21 10:30N 38°46' W 009°37'5 9.8
2018-Jun-21 10:00N 38°42' W 009°36'510.2
2018-Jun-21 09:30N 38°37' W 009°34'611.0
2018-Jun-21 09:00N 38°37' W 009°27'611.5
2018-Jun-21 08:30N 38°39' W 009°20'611.1
2018-Jun-21 08:00N 38°41' W 009°13'  
2018-Jun-16 12:00N 38°41' W 009°13'0 0.0
2018-Jun-16 11:30N 38°41' W 009°13'0 0.0
2018-Jun-16 11:00N 38°41' W 009°13'0 0.0
2018-Jun-16 10:30N 38°41' W 009°13'2 3.8
2018-Jun-16 10:00N 38°41' W 009°16'510.2
2018-Jun-16 09:30N 38°38' W 009°21'713.3
2018-Jun-16 09:00N 38°35' W 009°28'611.9
2018-Jun-16 08:30N 38°29' W 009°28'612.1
2018-Jun-16 08:00N 38°28' W 009°36'815.1
2018-Jun-16 07:30N 38°30' W 009°45'715.0
2018-Jun-16 07:00N 38°31' W 009°55'  

Dump ship's entire track history